Time;durP1;ratioP1;P1;durP2;ratioP2;P2;SDS_P1;SDS_P2;PMS_P1;PMS_P2;Temp;Humidity;BMP_temperature;BMP_pressure;BME280_temperature;BME280_humidity;BME280_pressure;Samples;Min_cycle;Max_cycle;Signal;HPM_P1;HPM_P2
2024/02/02 00:01:05;;;;;;;62.80;33.47;;;;;;;-0.90;71.61;100552.06;5076450;28;20056;-76
2024/02/02 00:03:30;;;;;;;55.28;27.88;;;;;;;-0.78;70.81;100557.19;5085417;28;20035;-78
2024/02/02 00:05:56;;;;;;;84.45;44.33;;;;;;;-0.87;72.08;100561.44;5073498;28;20028;-78
2024/02/02 00:08:21;;;;;;;79.93;41.97;;;;;;;-0.88;72.20;100550.16;5080013;28;20024;-77
2024/02/02 00:10:47;;;;;;;68.78;37.72;;;;;;;-0.61;72.06;100562.63;5058047;28;20114;-77
2024/02/02 00:13:12;;;;;;;55.67;30.27;;;;;;;-0.45;70.83;100575.22;5079040;28;20391;-78
2024/02/02 00:15:38;;;;;;;58.83;30.95;;;;;;;-0.54;70.80;100549.81;5080084;28;20060;-78
2024/02/02 00:18:04;;;;;;;59.85;28.92;;;;;;;-1.12;73.60;100573.19;5074156;28;20024;-78
2024/02/02 00:20:29;;;;;;;55.45;29.40;;;;;;;-1.39;73.54;100548.38;5057582;28;20495;-77
2024/02/02 00:22:54;;;;;;;50.83;26.92;;;;;;;-1.94;74.44;100563.44;5076588;28;20522;-76
2024/02/02 00:25:20;;;;;;;46.97;23.63;;;;;;;-1.91;72.66;100550.94;5078239;28;21396;-77
2024/02/02 00:27:45;;;;;;;39.65;21.92;;;;;;;-1.88;72.45;100560.31;5067779;28;20025;-77
2024/02/02 00:30:11;;;;;;;42.85;24.40;;;;;;;-1.86;71.90;100542.72;5067911;28;20107;-78
2024/02/02 00:32:39;;;;;;;47.97;25.33;;;;;;;-1.92;73.01;100565.00;5055751;28;20029;-78
2024/02/02 00:35:05;;;;;;;;;;;;;;;-1.67;73.58;100571.63;5078312;28;20032;-77
2024/02/02 00:37:30;;;;;;;48.03;26.08;;;;;;;-1.59;75.38;100555.31;5085688;28;19920;-78
2024/02/02 00:39:55;;;;;;;55.83;28.35;;;;;;;-1.55;75.05;100567.16;5082572;28;20050;-77
2024/02/02 00:42:21;;;;;;;68.72;39.53;;;;;;;-1.32;73.91;100554.78;5071483;28;20040;-77
2024/02/02 00:44:46;;;;;;;49.05;26.38;;;;;;;-1.96;75.70;100557.50;5072893;28;20023;-77
2024/02/02 00:47:12;;;;;;;54.10;26.55;;;;;;;-1.58;74.03;100553.50;5075554;28;20032;-78
2024/02/02 00:49:39;;;;;;;55.78;26.92;;;;;;;-2.27;75.09;100511.22;5076839;28;20024;-78
2024/02/02 00:52:04;;;;;;;69.00;38.67;;;;;;;-1.96;75.34;100552.28;5075852;28;20024;-78
2024/02/02 00:54:30;;;;;;;45.03;24.60;;;;;;;-2.44;77.04;100535.22;5088040;28;20047;-77
2024/02/02 00:56:55;;;;;;;43.38;23.88;;;;;;;-2.33;75.54;100552.66;5085023;28;20115;-77
2024/02/02 00:59:20;;;;;;;46.80;23.17;;;;;;;-2.57;77.19;100556.28;5086725;28;20397;-77
2024/02/02 01:01:46;;;;;;;46.92;25.02;;;;;;;-2.45;76.60;100520.53;5087277;28;20030;-78
2024/02/02 01:04:11;;;;;;;51.47;26.63;;;;;;;-2.28;77.90;100514.75;5087110;28;20031;-78
2024/02/02 01:06:37;;;;;;;57.15;28.92;;;;;;;-1.78;76.64;100548.13;5085801;28;20043;-78
2024/02/02 01:09:03;;;;;;;54.25;27.23;;;;;;;-1.95;77.48;100518.19;5087365;28;20020;-77
2024/02/02 01:11:29;;;;;;;50.80;26.48;;;;;;;-1.94;76.92;100505.94;5087486;28;20039;-78
2024/02/02 01:13:54;;;;;;;51.03;26.10;;;;;;;-1.76;75.86;100514.03;5069357;28;20035;-77
2024/02/02 01:16:20;;;;;;;54.92;28.30;;;;;;;-1.58;76.29;100516.91;5085867;28;20098;-77
2024/02/02 01:18:46;;;;;;;53.88;26.98;;;;;;;-2.23;78.43;100494.31;5087200;28;20573;-77
2024/02/02 01:21:11;;;;;;;53.50;27.92;;;;;;;-1.74;77.84;100535.66;5087490;28;20024;-77
2024/02/02 01:23:37;;;;;;;52.45;28.13;;;;;;;-1.64;77.13;100516.44;5075390;28;20051;-76
2024/02/02 01:26:04;;;;;;;53.53;28.25;;;;;;;-1.74;76.40;100485.97;5053570;28;20024;-77
2024/02/02 01:28:29;;;;;;;57.78;28.27;;;;;;;-1.37;75.64;100527.31;5087406;28;20089;-78
2024/02/02 01:30:55;;;;;;;53.30;27.23;;;;;;;-1.50;75.02;100517.09;5087308;28;20032;-78
2024/02/02 01:33:20;;;;;;;56.42;27.58;;;;;;;-1.58;76.14;100498.59;5078442;28;20265;-77
2024/02/02 01:35:46;;;;;;;53.30;28.48;;;;;;;-1.47;77.29;100516.81;5068148;28;20029;-77
2024/02/02 01:38:11;;;;;;;55.58;26.52;;;;;;;-1.31;76.07;100504.09;5086888;28;20032;-77
2024/02/02 01:40:37;;;;;;;55.67;27.33;;;;;;;-1.57;76.45;100492.38;5068534;28;20112;-77
2024/02/02 01:43:03;;;;;;;51.92;25.45;;;;;;;-1.46;76.72;100492.31;5081407;28;20036;-77
2024/02/02 01:45:30;;;;;;;43.97;23.52;;;;;;;-1.37;75.68;100475.81;5066616;28;20032;-78
2024/02/02 01:47:55;;;;;;;49.55;25.38;;;;;;;-1.32;75.80;100494.59;5069425;28;20071;-77
2024/02/02 01:50:21;;;;;;;47.17;22.98;;;;;;;-1.22;75.36;100490.22;5066538;28;20048;-77
2024/02/02 01:52:46;;;;;;;50.60;25.58;;;;;;;-1.36;74.86;100450.50;5066848;28;20036;-77
2024/02/02 01:55:12;;;;;;;47.75;23.65;;;;;;;-1.00;73.90;100485.75;5067148;28;20137;-77
2024/02/02 01:57:37;;;;;;;52.10;24.25;;;;;;;-1.18;74.01;100482.94;5081076;28;20382;-77
2024/02/02 02:00:04;;;;;;;44.25;22.80;;;;;;;-1.35;75.51;100484.38;5086498;28;20034;-77
2024/02/02 02:02:29;;;;;;;45.78;23.27;;;;;;;-1.47;75.98;100475.81;5086806;28;20028;-77
2024/02/02 02:04:55;;;;;;;48.00;23.75;;;;;;;-1.50;76.73;100475.22;5086506;28;20051;-77
2024/02/02 02:07:20;;;;;;;49.13;24.83;;;;;;;-2.00;78.00;100462.84;5085834;28;20063;-77
2024/02/02 02:09:46;;;;;;;50.33;25.27;;;;;;;-1.91;77.11;100488.22;5088434;28;20066;-77
2024/02/02 02:12:12;;;;;;;47.47;23.77;;;;;;;-1.59;77.44;100473.38;5072460;28;20075;-76
2024/02/02 02:14:37;;;;;;;43.97;22.63;;;;;;;-1.64;75.82;100468.53;5057500;28;20120;-77
2024/02/02 02:17:03;;;;;;;39.45;20.35;;;;;;;-1.64;74.53;100485.06;5078343;28;20044;-78
2024/02/02 02:19:28;;;;;;;45.60;23.83;;;;;;;-1.95;76.70;100463.28;5091047;28;20058;-76
2024/02/02 02:21:54;;;;;;;39.25;21.35;;;;;;;-1.64;75.35;100458.91;5090513;28;20458;-77
2024/02/02 02:24:19;;;;;;;44.03;21.73;;;;;;;-1.51;75.24;100489.25;5060652;28;21282;-77
2024/02/02 02:26:46;;;;;;;41.80;22.27;;;;;;;-1.99;76.01;100437.53;5056356;28;20087;-77
2024/02/02 02:29:11;;;;;;;39.83;20.42;;;;;;;-2.13;74.67;100460.41;5090771;28;20032;-77
2024/02/02 02:31:38;;;;;;;44.25;21.98;;;;;;;-1.63;75.21;100499.81;5090324;28;20039;-77
2024/02/02 02:34:03;;;;;;;44.20;23.40;;;;;;;-2.40;75.59;100507.91;5081808;28;20139;-77
2024/02/02 02:36:29;;;;;;;49.10;24.20;;;;;;;-2.61;76.63;100497.44;5071112;28;20033;-77
2024/02/02 02:38:54;;;;;;;42.97;23.42;;;;;;;-2.45;76.59;100494.41;5090180;28;20024;-77
2024/02/02 02:41:20;;;;;;;44.10;23.02;;;;;;;-2.57;77.82;100498.84;5089951;28;20039;-77
2024/02/02 02:43:45;;;;;;;44.25;21.60;;;;;;;-2.44;76.56;100478.59;5090497;28;20024;-77
2024/02/02 02:46:11;;;;;;;43.20;22.02;;;;;;;-2.21;76.23;100481.13;5071735;28;20092;-77
2024/02/02 02:48:37;;;;;;;41.80;20.95;;;;;;;-2.69;78.93;100503.25;5088726;28;20067;-77
2024/02/02 02:51:03;;;;;;;39.58;21.63;;;;;;;-2.54;79.74;100498.56;5090411;28;20035;-77
2024/02/02 02:53:29;;;;;;;42.40;22.02;;;;;;;-2.14;77.99;100491.91;5070681;28;20032;-76
2024/02/02 02:55:54;;;;;;;47.08;23.60;;;;;;;-2.09;77.52;100485.31;5069527;28;20024;-77
2024/02/02 02:58:20;;;;;;;45.45;23.30;;;;;;;-1.82;77.18;100503.16;5075532;28;20024;-77
2024/02/02 03:00:46;;;;;;;42.78;22.45;;;;;;;-2.46;79.24;100470.06;5089689;28;20405;-77
2024/02/02 03:03:11;;;;;;;44.65;22.98;;;;;;;-2.46;79.16;100451.78;5089777;28;20028;-77
2024/02/02 03:05:40;;;;;;;40.78;23.13;;;;;;;-2.77;79.76;100439.56;5071739;28;20032;-78
2024/02/02 03:08:06;;;;;;;47.55;24.30;;;;;;;-2.02;78.13;100481.28;5080501;28;20111;-78
2024/02/02 03:10:34;;;;;;;49.28;24.65;;;;;;;-2.11;78.31;100492.47;5052119;28;20025;-77
2024/02/02 03:13:00;;;;;;;50.05;23.70;;;;;;;-2.43;80.86;100482.88;5069377;28;20024;-77
2024/02/02 03:15:28;;;;;;;48.25;25.85;;;;;;;-2.08;79.51;100497.47;5069245;28;20052;-77
2024/02/02 03:17:54;;;;;;;48.10;25.45;;;;;;;-2.10;80.30;100480.25;5033646;28;20044;-77
2024/02/02 03:20:19;;;;;;;47.03;24.20;;;;;;;-2.02;80.23;100496.94;5031032;28;20036;-77
2024/02/02 03:22:45;;;;;;;47.92;25.40;;;;;;;-1.88;80.48;100494.97;5047979;28;20135;-77
2024/02/02 03:25:11;;;;;;;53.75;30.17;;;;;;;-1.95;80.38;100489.41;5048989;28;20040;-77
2024/02/02 03:27:37;;;;;;;43.78;23.80;;;;;;;-2.06;80.11;100464.19;5053637;28;20964;-76
2024/02/02 03:30:03;;;;;;;42.90;22.67;;;;;;;-2.23;79.15;100421.16;5050993;28;20032;-78
2024/02/02 03:32:29;;;;;;;43.42;24.25;;;;;;;-2.09;79.13;100469.66;5068905;28;20528;-77
2024/02/02 03:34:54;;;;;;;41.85;23.73;;;;;;;-1.92;80.33;100470.88;5059835;28;20033;-77
2024/02/02 03:37:19;;;;;;;46.08;24.23;;;;;;;-2.05;80.38;100481.50;5050321;28;20036;-78
2024/02/02 03:39:45;;;;;;;54.47;24.25;;;;;;;-2.83;82.27;100504.34;5050418;28;20116;-78
2024/02/02 03:42:12;;;;;;;45.22;24.17;;;;;;;-2.52;81.91;100499.28;5048726;28;20040;-77
2024/02/02 03:44:37;;;;;;;48.95;26.13;;;;;;;-2.53;81.49;100479.34;5030757;28;20028;-78
2024/02/02 03:47:03;;;;;;;52.90;27.50;;;;;;;-2.23;80.66;100499.56;5048947;28;20497;-78
2024/02/02 03:49:28;;;;;;;51.97;28.23;;;;;;;-2.12;80.52;100498.66;5062960;28;20024;-77
2024/02/02 03:51:54;;;;;;;50.55;27.45;;;;;;;-2.23;80.33;100490.84;5066977;28;20059;-77
2024/02/02 03:54:19;;;;;;;54.00;26.45;;;;;;;-2.10;80.27;100483.69;5068415;28;20244;-78
2024/02/02 03:56:45;;;;;;;47.72;26.05;;;;;;;-1.95;80.17;100478.16;5050621;28;20058;-77
2024/02/02 03:59:11;;;;;;;50.38;25.52;;;;;;;-1.57;79.17;100492.38;5067358;28;20118;-78
2024/02/02 04:01:36;;;;;;;48.22;26.17;;;;;;;-1.84;79.20;100483.28;5068266;28;20054;-77
2024/02/02 04:04:01;;;;;;;52.00;26.35;;;;;;;-1.80;78.56;100469.00;5068430;28;20417;-77
2024/02/02 04:06:28;;;;;;;47.83;26.35;;;;;;;-1.55;78.29;100487.84;5031950;28;20040;-77
2024/02/02 04:08:53;;;;;;;49.97;29.20;;;;;;;-1.64;78.07;100474.59;5051491;28;20037;-78
2024/02/02 04:11:19;;;;;;;55.50;28.27;;;;;;;-1.32;78.15;100506.84;5048443;28;20040;-78
2024/02/02 04:13:44;;;;;;;54.60;31.63;;;;;;;-1.49;77.40;100480.34;5048513;28;20032;-77
2024/02/02 04:16:10;;;;;;;60.90;34.17;;;;;;;-1.24;75.58;100518.31;5069108;28;20108;-77
2024/02/02 04:18:35;;;;;;;57.38;34.13;;;;;;;-1.32;75.72;100494.59;5087137;28;20024;-78
2024/02/02 04:21:00;;;;;;;54.03;30.92;;;;;;;-1.53;75.78;100465.88;5087988;28;20484;-77
2024/02/02 04:23:26;;;;;;;53.83;29.35;;;;;;;-1.17;75.23;100507.31;5070064;28;20024;-77
2024/02/02 04:25:51;;;;;;;53.53;29.80;;;;;;;-1.24;75.81;100520.94;5088017;28;20044;-77
2024/02/02 04:28:17;;;;;;;58.47;31.30;;;;;;;-1.75;76.42;100493.00;5087690;28;20089;-78
2024/02/02 04:30:42;;;;;;;72.03;37.50;;;;;;;-1.65;77.51;100514.81;5088614;28;20031;-78
2024/02/02 04:33:08;;;;;;;65.63;34.20;;;;;;;-1.88;77.13;100463.59;5088517;28;20027;-77
2024/02/02 04:35:34;;;;;;;68.18;35.60;;;;;;;-2.03;78.87;100516.19;5088707;28;20035;-77
2024/02/02 04:38:03;;;;;;;48.45;24.88;;;;;;;-1.98;79.03;100525.44;5088973;28;20097;-77
2024/02/02 04:40:28;;;;;;;42.90;22.77;;;;;;;-2.38;79.67;100526.09;5088756;28;20078;-76
2024/02/02 04:42:54;;;;;;;44.53;22.30;;;;;;;-2.60;80.44;100512.13;5088866;28;20055;-78
2024/02/02 04:45:19;;;;;;;64.40;34.33;;;;;;;-2.11;79.81;100526.44;5084180;28;20029;-77
2024/02/02 04:47:45;;;;;;;80.07;39.17;;;;;;;-1.87;79.67;100514.94;5069635;28;20409;-76
2024/02/02 04:50:10;;;;;;;65.93;32.85;;;;;;;-2.02;78.79;100493.50;5088437;28;20032;-77
2024/02/02 04:52:36;;;;;;;55.47;30.23;;;;;;;-1.85;79.88;100528.69;5094922;28;20026;-78
2024/02/02 04:55:01;;;;;;;57.28;29.80;;;;;;;-1.93;80.15;100521.50;5097344;28;20032;-78
2024/02/02 04:57:27;;;;;;;62.10;32.10;;;;;;;-1.93;80.04;100528.50;5060635;28;20025;-77
2024/02/02 04:59:54;;;;;;;61.28;33.10;;;;;;;-2.07;81.33;100527.84;5081288;28;20036;-77
2024/02/02 05:02:19;;;;;;;64.18;35.47;;;;;;;-1.62;79.79;100535.44;5077849;28;20063;-77
2024/02/02 05:04:45;;;;;;;63.97;35.88;;;;;;;-1.59;79.73;100544.84;5078297;28;20016;-77
2024/02/02 05:07:11;;;;;;;96.55;50.58;;;;;;;-1.62;78.86;100553.75;5059776;28;20039;-77
2024/02/02 05:09:36;;;;;;;103.50;53.50;;;;;;;-1.63;78.20;100497.19;5068504;28;20028;-77
2024/02/02 05:12:01;;;;;;;85.72;42.67;;;;;;;-1.32;77.59;100536.44;5096711;28;20028;-77
2024/02/02 05:14:27;;;;;;;129.85;71.57;;;;;;;-1.51;78.07;100541.56;5095388;28;20036;-78
2024/02/02 05:16:52;;;;;;;84.78;45.60;;;;;;;-1.46;78.28;100523.72;5081109;28;20048;-78
2024/02/02 05:19:18;;;;;;;283.98;117.05;;;;;;;-1.20;78.82;100565.16;5080822;28;20036;-78
2024/02/02 05:21:43;;;;;;;230.80;96.25;;;;;;;-1.03;78.12;100573.22;5085102;28;20103;-78
2024/02/02 05:24:09;;;;;;;251.10;109.13;;;;;;;-1.02;77.36;100558.38;5082534;28;20492;-78
2024/02/02 05:26:35;;;;;;;147.10;73.93;;;;;;;-0.90;77.50;100557.31;5066356;28;20027;-77
2024/02/02 05:29:00;;;;;;;108.78;56.90;;;;;;;-0.90;76.85;100578.25;5079060;28;20032;-78
2024/02/02 05:31:26;;;;;;;86.78;49.17;;;;;;;-0.86;75.95;100563.94;5080703;28;20039;-78
2024/02/02 05:33:51;;;;;;;86.53;43.60;;;;;;;-0.78;76.31;100588.63;5058853;28;20024;-77
2024/02/02 05:36:16;;;;;;;69.97;39.80;;;;;;;-0.82;76.16;100586.28;5079688;28;20043;-78
2024/02/02 05:38:42;;;;;;;74.40;43.72;;;;;;;-1.30;77.01;100538.94;5087753;28;20020;-77
2024/02/02 05:41:07;;;;;;;67.93;39.72;;;;;;;-0.81;76.92;100587.91;5087627;28;20556;-77
2024/02/02 05:43:33;;;;;;;76.60;43.83;;;;;;;-0.79;76.61;100573.88;5088280;28;20112;-78
2024/02/02 05:45:58;;;;;;;71.50;39.83;;;;;;;-0.55;75.98;100590.09;5071853;28;20040;-78
2024/02/02 05:48:24;;;;;;;64.07;35.65;;;;;;;-0.79;75.92;100574.69;5056119;28;20035;-78
2024/02/02 05:50:49;;;;;;;63.47;34.95;;;;;;;-0.77;76.49;100592.91;5076541;28;20136;-78
2024/02/02 05:53:15;;;;;;;64.97;31.92;;;;;;;-1.07;77.63;100579.69;5055718;28;20031;-77
2024/02/02 05:55:42;;;;;;;65.00;34.78;;;;;;;-0.92;78.33;100589.78;5074491;28;20448;-78
2024/02/02 05:58:08;;;;;;;78.20;41.67;;;;;;;-0.85;78.39;100583.91;5093446;28;20480;-78
2024/02/02 06:00:33;;;;;;;107.20;51.33;;;;;;;-1.04;79.04;100565.53;5080843;28;20035;-77
2024/02/02 06:02:58;;;;;;;85.93;44.83;;;;;;;-0.78;77.70;100599.09;5073846;28;20576;-78
2024/02/02 06:05:24;;;;;;;64.25;37.13;;;;;;;-0.70;77.57;100625.44;5055558;28;20495;-78
2024/02/02 06:07:49;;;;;;;59.03;35.53;;;;;;;-0.77;78.06;100614.69;5073484;28;20032;-77
2024/02/02 06:10:15;;;;;;;67.47;35.38;;;;;;;-0.99;78.79;100594.72;5083794;28;20024;-78
2024/02/02 06:12:40;;;;;;;66.07;36.72;;;;;;;-0.90;79.10;100617.53;5055929;28;20043;-78
2024/02/02 06:15:07;;;;;;;68.50;37.47;;;;;;;-1.11;80.77;100607.06;5073328;28;20447;-78
2024/02/02 06:17:33;;;;;;;63.15;35.85;;;;;;;-0.95;80.32;100619.69;5055366;28;20048;-76
2024/02/02 06:19:58;;;;;;;60.63;32.25;;;;;;;-0.77;80.40;100606.00;5077645;28;20379;-78
2024/02/02 06:22:23;;;;;;;59.25;31.33;;;;;;;-0.61;79.27;100635.16;5073636;28;20039;-77
2024/02/02 06:24:49;;;;;;;55.33;32.38;;;;;;;-0.32;79.06;100634.41;5073746;28;20050;-78
2024/02/02 06:27:15;;;;;;;74.13;39.97;;;;;;;-0.54;78.91;100615.31;5073436;28;20116;-77
2024/02/02 06:29:41;;;;;;;87.13;48.78;;;;;;;-0.18;78.00;100625.31;5075405;28;20482;-78
2024/02/02 06:32:06;;;;;;;102.72;52.60;;;;;;;-0.13;79.19;100639.69;5075652;28;20776;-78
2024/02/02 06:34:32;;;;;;;60.72;35.47;;;;;;;-0.37;79.30;100611.19;5093702;28;20027;-78
2024/02/02 06:36:57;;;;;;;61.60;32.35;;;;;;;-0.18;79.92;100634.03;5086891;28;20033;-79
2024/02/02 06:39:23;;;;;;;80.30;40.42;;;;;;;-0.13;78.18;100644.09;5072948;28;20023;-77
2024/02/02 06:41:49;;;;;;;80.70;41.83;;;;;;;0.08;76.93;100631.72;5075270;28;20471;-78
2024/02/02 06:44:16;;;;;;;90.25;47.30;;;;;;;-0.08;78.57;100636.63;5072858;28;20021;-78
2024/02/02 06:46:41;;;;;;;83.03;42.42;;;;;;;0.08;79.20;100657.09;5054852;28;20024;-75
2024/02/02 06:49:07;;;;;;;74.30;41.08;;;;;;;0.02;79.54;100647.16;5055280;28;20027;-77
2024/02/02 06:51:32;;;;;;;79.32;43.08;;;;;;;-0.04;80.48;100632.78;5075326;28;20079;-78
2024/02/02 06:53:58;;;;;;;93.82;45.17;;;;;;;0.21;80.30;100639.31;5055098;28;20070;-78
2024/02/02 06:56:41;;;;;;;50.60;28.02;;;;;;;0.11;80.42;100633.25;5053094;28;20816;-78
2024/02/02 06:59:08;;;;;;;49.35;26.58;;;;;;;0.37;81.49;100657.97;5070107;28;20051;-79
2024/02/02 07:01:34;;;;;;;45.05;25.33;;;;;;;0.46;80.29;100663.34;5068212;28;20127;-78
2024/02/02 07:04:02;;;;;;;51.25;27.65;;;;;;;0.37;82.15;100660.59;5072257;28;20127;-76
2024/02/02 07:06:31;;;;;;;45.83;25.20;;;;;;;0.46;82.27;100658.09;5089919;28;20576;-76
2024/02/02 07:09:00;;;;;;;63.42;34.63;;;;;;;0.95;79.50;100677.25;5072249;28;20092;-76
2024/02/02 07:11:55;;;;;;;66.88;41.13;;;;;;;0.97;79.00;100675.31;5059901;28;20048;-76
2024/02/02 07:14:35;;;;;;;57.38;31.70;;;;;;;1.04;78.70;100675.56;5069515;28;20499;-76
2024/02/02 07:17:00;;;;;;;57.85;30.80;;;;;;;0.95;77.87;100650.97;5068857;28;20052;-77
2024/02/02 07:19:41;;;;;;;47.50;26.15;;;;;;;0.98;79.20;100677.81;5051525;28;20550;-76
2024/02/02 07:22:24;;;;;;;45.20;24.38;;;;;;;1.00;78.33;100683.75;5086724;28;20054;-76
2024/02/02 07:24:50;;;;;;;49.35;26.15;;;;;;;1.17;77.01;100682.16;5089798;28;20076;-77
2024/02/02 07:27:47;;;;;;;43.80;24.75;;;;;;;1.04;78.37;100686.06;5085552;28;20036;-77
2024/02/02 07:30:29;;;;;;;68.77;34.80;;;;;;;0.93;79.13;100679.19;5052513;28;20520;-77
2024/02/02 07:32:55;;;;;;;81.82;39.42;;;;;;;1.27;77.98;100692.66;5068903;28;20029;-76
2024/02/02 07:35:31;;;;;;;99.60;42.83;;;;;;;1.33;78.13;100692.09;5068795;28;20464;-77
2024/02/02 07:38:02;;;;;;;107.93;45.22;;;;;;;1.60;77.41;100688.66;5059629;28;20810;-77
2024/02/02 07:40:30;;;;;;;74.50;39.90;;;;;;;1.65;76.35;100705.78;5088917;28;20481;-76
2024/02/02 07:42:56;;;;;;;;;;;;;;;1.59;75.91;100715.09;5071469;28;20036;-77
2024/02/02 07:45:21;;;;;;;72.25;38.28;;;;;;;1.62;74.81;100690.31;5088535;28;19990;-77
2024/02/02 07:47:47;;;;;;;63.08;35.65;;;;;;;1.67;76.22;100682.81;5089379;28;20028;-77
2024/02/02 07:50:12;;;;;;;55.45;30.75;;;;;;;2.01;74.95;100707.56;5088788;28;20031;-76
2024/02/02 07:52:38;;;;;;;63.80;38.47;;;;;;;2.05;74.71;100697.56;5087362;28;20389;-77
2024/02/02 07:55:04;;;;;;;59.72;32.70;;;;;;;2.21;74.56;100707.44;5088915;28;20797;-77
2024/02/02 07:57:29;;;;;;;47.00;29.33;;;;;;;2.20;74.30;100705.78;5088861;28;20032;-76
2024/02/02 07:59:55;;;;;;;64.85;34.30;;;;;;;2.18;74.04;100698.03;5089021;28;20052;-77
2024/02/02 08:02:22;;;;;;;53.22;31.52;;;;;;;2.54;74.29;100721.75;5074168;28;20040;-77
2024/02/02 08:04:48;;;;;;;59.08;33.75;;;;;;;2.58;73.62;100731.00;5068447;28;20031;-77
2024/02/02 08:07:13;;;;;;;60.95;38.13;;;;;;;2.63;73.84;100733.19;5067868;28;20431;-77
2024/02/02 08:09:39;;;;;;;62.42;34.70;;;;;;;2.60;74.99;100729.03;5068505;28;20688;-77
2024/02/02 08:12:04;;;;;;;50.55;29.17;;;;;;;2.72;75.07;100731.47;5070984;28;20054;-76
2024/02/02 08:14:30;;;;;;;49.55;30.63;;;;;;;2.86;74.31;100727.44;5071177;28;20489;-76
2024/02/02 08:16:55;;;;;;;54.15;32.30;;;;;;;3.18;75.06;100718.97;5050287;28;20056;-77
2024/02/02 08:19:21;;;;;;;53.38;33.20;;;;;;;3.43;73.71;100735.75;5067911;28;20494;-78
2024/02/02 08:21:46;;;;;;;59.40;33.08;;;;;;;3.26;73.42;100702.38;5052963;28;20029;-77
2024/02/02 08:24:12;;;;;;;104.03;52.45;;;;;;;3.30;73.43;100735.34;5067783;28;20028;-77
2024/02/02 08:26:37;;;;;;;109.05;52.08;;;;;;;3.37;72.78;100705.59;5049770;28;20036;-78
2024/02/02 08:29:02;;;;;;;116.97;55.40;;;;;;;3.61;73.50;100739.16;5059027;28;20107;-77
2024/02/02 08:31:29;;;;;;;145.63;69.47;;;;;;;3.76;74.26;100730.66;5085116;28;20058;-77
2024/02/02 08:33:54;;;;;;;122.70;61.80;;;;;;;3.85;74.33;100719.16;5057534;28;20027;-77
2024/02/02 08:36:20;;;;;;;86.70;50.30;;;;;;;4.15;74.63;100740.72;5082626;28;20041;-78
2024/02/02 08:38:46;;;;;;;70.38;36.83;;;;;;;4.26;75.35;100743.06;5062808;28;20027;-79
2024/02/02 08:41:12;;;;;;;59.25;32.10;;;;;;;4.56;75.49;100746.09;5075951;28;20024;-78
2024/02/02 08:43:39;;;;;;;49.90;28.75;;;;;;;4.74;75.59;100744.13;5079549;28;20016;-77
2024/02/02 08:46:12;;;;;;;42.97;24.05;;;;;;;5.14;75.56;100742.47;5077477;28;20024;-77
2024/02/02 08:48:49;;;;;;;46.00;24.88;;;;;;;5.17;75.05;100741.31;5079589;28;20020;-78
2024/02/02 08:51:21;;;;;;;37.83;21.40;;;;;;;5.53;74.66;100773.50;5076435;28;20070;-78
2024/02/02 08:53:47;;;;;;;38.05;21.88;;;;;;;5.50;75.28;100765.91;5079768;28;20039;-77
2024/02/02 08:56:14;;;;;;;37.92;21.80;;;;;;;5.77;74.24;100763.84;5077367;28;20025;-77
2024/02/02 08:58:41;;;;;;;29.67;18.52;;;;;;;5.73;74.79;100757.25;5079239;28;20031;-76
2024/02/02 09:01:41;;;;;;;31.13;19.10;;;;;;;6.20;74.03;100773.16;5072448;28;20493;-76
2024/02/02 09:04:43;;;;;;;29.65;18.70;;;;;;;6.42;72.75;100768.09;5067241;28;20036;-76
2024/02/02 09:07:13;;;;;;;29.70;17.63;;;;;;;6.56;72.22;100758.53;5066406;28;20123;-76
2024/02/02 09:09:38;;;;;;;28.23;16.27;;;;;;;6.64;72.27;100763.81;5049119;28;20142;-75
2024/02/02 09:12:04;;;;;;;27.70;16.92;;;;;;;6.67;72.92;100767.94;5072844;28;20467;-77
2024/02/02 09:14:31;;;;;;;29.33;18.00;;;;;;;6.94;72.01;100771.88;5077734;28;20028;-76
2024/02/02 09:16:57;;;;;;;26.42;15.30;;;;;;;6.97;71.43;100767.03;5077071;28;20101;-78
2024/02/02 09:19:26;;;;;;;27.63;16.77;;;;;;;7.20;71.05;100772.31;5076876;28;20028;-76
2024/02/02 09:21:55;;;;;;;26.58;16.67;;;;;;;7.17;71.16;100762.06;5078922;28;20036;-79
2024/02/02 09:24:41;;;;;;;26.23;16.83;;;;;;;7.36;71.14;100784.63;5059782;28;20029;-75
2024/02/02 09:27:39;;;;;;;25.80;16.42;;;;;;;7.35;70.91;100785.59;5065075;28;20028;-76
2024/02/02 09:30:10;;;;;;;22.27;15.63;;;;;;;7.29;71.37;100765.09;5063473;28;20036;-76
2024/02/02 09:32:35;;;;;;;23.08;16.33;;;;;;;7.32;71.61;100783.31;5080054;28;20028;-77
2024/02/02 09:35:02;;;;;;;28.33;16.75;;;;;;;7.34;71.77;100780.50;5075920;28;20089;-78
2024/02/02 09:37:42;;;;;;;27.10;17.38;;;;;;;7.46;71.54;100781.72;5069124;28;20562;-76
2024/02/02 09:40:50;;;;;;;31.40;18.52;;;;;;;7.43;71.42;100772.25;5069498;28;20132;-76
2024/02/02 09:43:24;;;;;;;25.67;16.27;;;;;;;7.36;72.19;100783.78;5082754;28;20051;-77
2024/02/02 09:46:20;;;;;;;28.67;18.10;;;;;;;7.28;73.17;100783.88;5069204;28;20028;-77
2024/02/02 09:49:07;;;;;;;29.67;18.55;;;;;;;7.34;73.50;100783.16;5078889;28;20055;-76
2024/02/02 09:51:51;;;;;;;29.38;18.90;;;;;;;7.40;73.04;100782.44;5075414;28;20103;-77
2024/02/02 09:54:22;;;;;;;31.45;19.70;;;;;;;7.38;73.04;100773.81;5057324;28;20421;-77
2024/02/02 09:57:16;;;;;;;44.33;23.63;;;;;;;7.40;73.57;100777.94;5067074;28;20024;-76
2024/02/02 09:59:54;;;;;;;30.13;19.88;;;;;;;7.34;74.30;100780.50;5067010;28;20040;-76
2024/02/02 10:02:38;;;;;;;36.85;21.92;;;;;;;7.45;74.32;100774.75;5071759;28;20056;-77
2024/02/02 10:05:21;;;;;;;43.22;24.33;;;;;;;7.38;75.08;100779.13;5072318;28;20036;-78
2024/02/02 10:08:23;;;;;;;33.78;21.25;;;;;;;7.33;74.40;100754.94;5066703;28;20025;-77
2024/02/02 10:11:07;;;;;;;28.23;18.27;;;;;;;7.61;73.69;100785.19;5066555;28;20068;-77
2024/02/02 10:13:47;;;;;;;32.58;19.73;;;;;;;7.43;73.68;100761.63;5068962;28;20055;-77
2024/02/02 10:16:31;;;;;;;35.72;22.27;;;;;;;7.53;73.68;100782.63;5048239;28;20048;-77
2024/02/02 10:19:31;;;;;;;35.97;22.58;;;;;;;7.70;72.10;100782.44;5066361;28;20060;-76
2024/02/02 10:22:35;;;;;;;36.65;22.00;;;;;;;7.69;72.00;100764.88;5050848;28;20078;-77
2024/02/02 10:25:12;;;;;;;31.25;19.83;;;;;;;7.63;72.15;100769.91;5079300;28;20023;-76
2024/02/02 10:27:48;;;;;;;41.72;23.23;;;;;;;7.79;72.05;100786.69;5074881;28;20028;-76
2024/02/02 10:30:32;;;;;;;43.28;24.80;;;;;;;7.84;71.56;100792.25;5072465;28;20036;-77
2024/02/02 10:33:08;;;;;;;33.17;19.65;;;;;;;7.90;71.40;100782.72;5073228;28;20555;-76
2024/02/02 10:35:33;;;;;;;34.40;21.40;;;;;;;7.94;71.84;100779.53;5072277;28;20016;-76
2024/02/02 10:38:18;;;;;;;35.60;21.33;;;;;;;7.92;72.42;100770.91;5078788;28;20031;-75
2024/02/02 10:41:02;;;;;;;29.52;20.02;;;;;;;8.05;71.50;100765.78;5084102;28;20476;-76
2024/02/02 10:43:31;;;;;;;30.90;20.15;;;;;;;8.02;72.15;100765.31;5089572;28;20073;-76
2024/02/02 10:46:06;;;;;;;29.50;19.48;;;;;;;8.10;72.00;100773.19;5090564;28;20404;-77
2024/02/02 10:48:37;;;;;;;32.35;21.27;;;;;;;8.33;70.76;100775.72;5072055;28;20420;-76
2024/02/02 10:51:11;;;;;;;28.67;18.15;;;;;;;8.60;68.93;100768.06;5079445;28;20012;-76
2024/02/02 10:53:43;;;;;;;25.38;16.05;;;;;;;8.50;68.89;100770.22;5082044;28;20043;-77
2024/02/02 10:56:25;;;;;;;27.60;17.95;;;;;;;8.38;68.48;100749.41;5072410;28;20040;-75
2024/02/02 10:58:59;;;;;;;25.85;15.70;;;;;;;8.77;67.47;100774.81;5082121;28;20016;-76
2024/02/02 11:01:56;;;;;;;23.52;15.73;;;;;;;8.62;67.72;100768.69;5065111;28;20032;-78
2024/02/02 11:04:41;;;;;;;21.45;14.63;;;;;;;8.74;66.10;100775.16;5083777;28;20093;-77
2024/02/02 11:07:18;;;;;;;24.50;14.95;;;;;;;8.55;66.63;100775.78;5090311;28;20026;-76
2024/02/02 11:09:56;;;;;;;25.48;16.05;;;;;;;8.50;66.14;100767.53;5089972;28;20040;-77
2024/02/02 11:12:28;;;;;;;;;;;;;;;8.49;65.71;100771.22;5078956;28;20111;-77
2024/02/02 11:15:33;;;;;;;28.33;16.48;;;;;;;8.42;65.50;100749.91;5074160;28;19909;-76
2024/02/02 11:18:12;;;;;;;26.42;17.13;;;;;;;8.41;65.69;100758.88;5069259;28;20096;-77
2024/02/02 11:20:51;;;;;;;24.90;16.77;;;;;;;8.51;65.50;100754.06;5076561;28;20032;-77